Timeline UpdatesTrip UpdatesNews PostsPvt PostsTravel TipsAdmin PostsConv PostsFollowed PostsChat RequestsBlog PostsPNR Posts

Disclaimer
Search
 
 
Fri Sep 19, 2014 07:17:39 ISTHomeTrainsΣChainsAtlasPNRForumGalleryNewsFAQTripsMembersLoginFeedback
No Recent News for this Train
Other Trains in the News **new
Latest...
running with Inspection Car is of NR [0611/A]; since 2 weeks
Wed Jul 23, 2014 (11:12AM)
⇐ Return Journey: Train# 13483

13484/Farakka Express (via Faizabad)

Time-Table HAS CHANGED.
Sep 03 (1:27PM)
Change Departure Station:
Change Arrival Station:
Post a Train Travel TipPost a Train Travel Tip **new
Post a Comment/Question/Picture/VideoPost a Comment/Question/Picture/Video
Pantry/Catering
✓ Pantry Car Avbl
✓ Catering Avbl
RSA - Rake Sharing
13413/13414/04031/04032
Rake/Coach Composition
LOCO-SLR-UR-UR-S9-S8-S7-S6-S5-S4-S3-S2-S1-PC-B1-A1-UR-UR-UR-UR-UR-SLR-HPCV http://indiarailinfo.com/blog/post/1168926 by manu
Loco
DLI - LKO -> GZB[NR] WAP-5/7; LKO - MLDT ->...
Read more...
LKO[NR] WDM-3D/3A
News    PNR    Forum    Time-Table    Availability    Fare Chart    Map    Arr/Dep History    Trips    Gallery    ΣChains    X/O    Timeline    
Travel Time: 22h 57m    39 halts    Distance: 1059 km    Avg Speed: 46 km/hr
Type: Mail/Express
Zone: ER/Eastern
Departs @ 21:45
Platform# 7
S T TF 
Old Delhi Junction/DLI 
Arrives @ 20:42 +1 night
Platform# 2
 M W FS
Patna Junction/PNBE 

39 halts. 175 intermediate Stations between Old Delhi Junction and Patna Junction

Show ALL intermediate Stations  Show Old Time-Table

#CodeStation NameX/OArrivesAvgDepartsAvgHaltPFDay#KmSpeedElevZoneAddress
1DLIOld Delhi Junction (16)»  -21:50 21:45-710.031219mNRNear Chandni Chowk Metro Station, Delhi NCT
2GZBGhaziabad Junction (6)  22:26 22:24-22:28 22:26-2m2120.164217mNRGhaziabad, Uttar Pradesh
3KRJKhurja Junction (4)  23:25-23:28-3m--182.742199mNCRBulandshahr, Uttar Pradesh
4ALJNAligarh Junction (4)  00:30-00:35-5m22126.286192mNCRAligarh, Uttar Pradesh
5HRSHathras Junction (3)X  00:56-01:01-5m--2156.459183mNCRMahamaya Nagar(05722-242803), Uttar Pradesh
6TDLTundla Junction (5)X  01:50-01:58-8m32204.450167mNCRDistt.Firozabad, Uttar Pradesh
7FZDFirozabad (4)X  02:18-02:20-2m22220.963164mNCRFirozabad, Uttar Pradesh
8SKBShikohabad Junction (4)X  02:39-02:41-2m22240.885166mNCRDistrict Firozabad, Uttar Pradesh
9ETWEtawah (5)X  03:20-03:22-2m32296.265154mNCRDistt. Etawah, Uttar Pradesh
10CNBKanpur Central (10)X  05:30-05:45-15m72435.547128mNCRKANPUR-208 001, Uttar Pradesh
11ONUnnao Junction (5)  06:06 06:07-06:08 06:09-2m--2453.046129mNRUnnao, Uttar Pradesh
12LKOLucknow Charbagh NR (9)X  07:20-07:45-25m--2507.549123mNR226004, Uttar Pradesh
13BBKBarabanki Junction (4)  08:20-08:22-2m--2536.152122mNRPin-225001, Uttar Pradesh
14DYDDaryabad  09:06-09:07-1m--2574.169116mNRFaizabad Rd, Uttar Pradesh
15RDLRudauli (2)  09:27-09:28-1m--2597.272112mNRRudauli, Uttar Pradesh
16SLWSohwal  09:47-09:48-1m--2620.142107mNRFaizabad Rd, Uttar Pradesh
17FDFaizabad Junction (5)X  10:10-10:15-5m--2635.313104mNRFaizabad, Uttar Pradesh
18ACNDAcharya Narendra Dev Nagar  10:25-10:26-1m--2637.512104mNRFaizabad, Uttar Pradesh
19AYAyodhya Junction (3)X  10:48-10:49-1m12642.06698mNRAyodhya, Uttar Pradesh
20GGJGoshainGanj (3)  11:18-11:19-1m--2673.87498mNRGoshainganj, Uttar Pradesh
21ABPAkbarpur Junction (2)  11:37-11:39-2m--2696.07292mNRAkbarpur, Uttar Pradesh
22MLPRMalipur (2)  11:55-11:56-1m--2715.16292mNRMalipur, Uttar Pradesh
23SHGShahganj Junction (4)X  12:20-12:25 12:27-5 7m--2740.15390mNRShahganj, Uttar Pradesh
24JNUJaunpur Junction (5)X  13:05-13:07-2m12773.42383mNRJaunpur, Uttar Pradesh
25ZBDZafarabad Junction (4)X  13:24-13:25-1m--2779.83683mNRNational Highway 56, Uttar Pradesh
26JLLJalalGanj (2)  13:45-13:46-1m--2791.93487mNRJalalganj Railway Station, Uttar Pradesh
27BSBVaranasi Junction (9)X  15:00 14:55-15:15-15 20m82831.01882mNRVaranasi 221002, Uttar Pradesh
28MGSMughal Sarai Junction (8)  16:10-16:25-15m--2847.57483mECRMughalsarai 232101, Uttar Pradesh
29ZNAZamania (2)  17:01-17:03-2m--2891.76777mECRGhazipur, Uttar Pradesh
30DLNDildarnagar Junction (2)  17:15-17:17-2m--2905.25272mECRDildarnagar, Uttar Pradesh
31BWHBhadaura (2)X17:26-17:28-2m--2913.06169mECRGhazipur, Uttar Pradesh
32GMRGahmar (2)X  17:36-17:38-2m--2921.27968mECRDistt: Ghazipur, Uttar Pradesh
33CSAChausa (2)O  17:45-17:47-2m--2930.56068mECRState Highway 14, Bihar
34BXRBuxar (3)X  17:58-18:03-5m--2941.48967mECRBuxar, Bihar
35DUREDumraon (3)  18:14-18:16-2m--2957.78070mECRDumraon, Bihar
36RPRRaghunathpur (4)  18:28-18:30-2m--2973.77469mECRRaghunathpur, Bihar
37BEABihiya (3)  18:42-18:44-2m--2988.57167mECRBehea, Bihar
38ARAAra Junction (3)X  19:02-19:07-5m--21009.98963mECRarrah( 06182-233411), Bihar
39BTABihta (2)X  19:22-19:24-2m--21032.13462mECRDistt: Patna, Bihar
40DNRDanapur (5)X  19:55-20:05-10m--21049.41558mECRKhagaul, Bihar
41PNBEPatna Junction (10)•X  20:42-20:52-10m221058.82257mECRPatna 800001, Bihar
42RJPBRajendra Nagar Bihar (4)  20:59-21:01-2m--21061.43455mECRPatna 800001, Bihar
43PNCPatna Saheb (3)X  21:14-21:16-2m--21068.74159mECRPatna 800008, Bihar
44FUTFatwa (6)  21:34-21:36-2m--21080.95653mECRPatna, Bihar
45BKPBakhtiyarpur Junction (5)O  22:01-22:05-4m--21104.23751mECRPatna, Bihar
46BARHBarh (3)  22:34-22:36-2m--21122.37049mECRBarh, Bihar
47MKAMokama Junction (4)  22:58-23:03-5m--21148.17148mECRPatna, Bihar
48BRYABarhiya (3)  23:18-23:20-2m--21165.82247mECRBarahiya, Bihar
49KIULKiul Junction (5)  00:05-00:10-5m--31182.26653mECRDist. Lakhisarai, Bihar
50AHAAbhaipur (3)  00:31-00:33-2m--31205.26052mERAbhaipur, Bihar
51JMPJamalpur Junction (4)  00:55-01:05-10m131227.16159mERJamalpur 06344-243101, Bihar
52BUPBariarpur (3)  01:16-01:18-2m--31238.25442mERMunger, Bihar
53SGGSultanGanj (3)  01:38-01:40-2m--31256.14742mERSultanganj, Bihar
54BGPBhagalpur Junction (6)  02:12-02:22-10m--31281.15649mERBhagalpur, Bihar
55SBOSabaur (3)  02:30-02:32-2m--31288.66142mERSabour, Bihar
56CLGKahalgaon (2)  02:54-02:56-2m131311.23744mERBhagalpur, Bihar
57PPTPirpainti (2)  03:29-03:31-2m--31331.52653mERBhagalpur, Bihar
58SBGSahibganj Junction (3)X  04:25-04:33-8m131355.18138mERSahibganj, Jharkhand
59TPHTinpahar Junction (3)X  05:00 05:01-05:02 05:03-2m231392.83545mERBamangawan, Jharkhand
60BHWBarharwa Junction (3)  05:32-05:36-4m231409.54036mERBarharwa, Jharkhand
61NFKNew Farakka Junction (3)X  06:03-06:08-5m231427.52932mERDist - Murshidabad, West Bengal
62MLDTMalda Town (5)  07:20----31462.6-30mERDist - Malda, West Bengal
Scroll to Top
Scroll to Bottom